Time;durP1;ratioP1;P1;durP2;ratioP2;P2;SDS_P1;SDS_P2;PMS_P1;PMS_P2;Temp;Humidity;BMP_temperature;BMP_pressure;BME280_temperature;BME280_humidity;BME280_pressure;Samples;Min_cycle;Max_cycle;Signal;HPM_P1;HPM_P2
2021/12/28 00:00:32;;;;;;;;;94.50;75.75;;;;;-3.00;77.47;101815.63;6224622;23;8765;-80
2021/12/28 00:03:27;;;;;;;;;110.25;85.50;;;;;-2.97;77.72;101814.41;6224431;23;8912;-81
2021/12/28 00:06:24;;;;;;;;;108.25;81.00;;;;;-3.08;77.77;101818.56;6244838;23;8868;-81
2021/12/28 00:09:20;;;;;;;;;104.50;80.00;;;;;-3.01;78.27;101796.91;6244799;23;8816;-81
2021/12/28 00:12:16;;;;;;;;;96.00;76.00;;;;;-3.01;77.88;101803.16;6238791;23;8915;-81
2021/12/28 00:15:47;;;;;;;;;94.50;71.00;;;;;-3.03;79.04;101809.84;6245885;22;8859;-81
2021/12/28 00:18:36;;;;;;;;;93.25;75.50;;;;;-2.75;78.80;101809.53;6245814;23;8894;-81
2021/12/28 00:21:32;;;;;;;;;84.50;69.00;;;;;-2.77;78.49;101800.75;6243401;23;8839;-81
2021/12/28 00:24:30;;;;;;;;;91.50;71.00;;;;;-2.81;78.85;101808.50;6245109;23;8793;-81
2021/12/28 00:27:25;;;;;;;;;92.25;69.00;;;;;-2.89;79.67;101795.19;6243422;23;8938;-81
2021/12/28 00:30:22;;;;;;;;;75.50;62.50;;;;;-2.96;80.36;101794.41;6245604;23;8781;-81
2021/12/28 00:33:20;;;;;;;;;55.00;45.75;;;;;-3.28;80.95;101788.88;6245171;22;8792;-81
2021/12/28 00:36:16;;;;;;;;;89.00;69.75;;;;;-3.20;82.24;101782.41;6246613;22;8832;-82
2021/12/28 00:39:12;;;;;;;;;93.00;69.75;;;;;-3.25;81.97;101765.97;6243021;23;9564;-82
2021/12/28 00:42:08;;;;;;;;;84.25;65.00;;;;;-3.48;83.19;101766.44;6243211;23;9491;-79
2021/12/28 00:45:04;;;;;;;;;105.50;76.00;;;;;-3.39;82.91;101770.59;6262877;22;8792;-81
2021/12/28 00:48:01;;;;;;;;;101.00;77.50;;;;;-3.28;84.11;101769.94;6246186;22;8804;-80
2021/12/28 00:50:57;;;;;;;;;99.25;74.00;;;;;-3.28;83.48;101755.59;6244593;23;8796;-81
2021/12/28 00:53:53;;;;;;;;;102.75;79.00;;;;;-3.34;84.39;101742.91;6276274;22;8780;-81
2021/12/28 00:56:48;;;;;;;;;92.75;75.75;;;;;-3.40;84.75;101731.06;6247075;22;8904;-81
2021/12/28 00:59:44;;;;;;;;;107.25;77.50;;;;;-3.32;84.55;101730.00;6245687;23;8816;-82
2021/12/28 01:02:40;;;;;;;;;99.75;77.50;;;;;-3.47;85.45;101719.44;6243331;23;9522;-81
2021/12/28 01:05:36;;;;;;;;;22.25;9.75;;;;;-3.23;85.05;101723.28;6245166;23;8901;-81
2021/12/28 01:08:33;;;;;;;;;117.25;93.50;;;;;-3.23;85.08;101709.75;6242914;23;8918;-81
2021/12/28 01:11:28;;;;;;;;;114.75;88.25;;;;;-3.41;85.81;101716.72;6243140;23;8797;-80
2021/12/28 01:14:25;;;;;;;;;107.25;83.25;;;;;-3.38;85.94;101713.56;6262180;22;9499;-80
2021/12/28 01:17:21;;;;;;;;;106.75;85.50;;;;;-3.14;85.57;101695.78;6244917;23;8839;-80
2021/12/28 01:20:18;;;;;;;;;82.25;64.50;;;;;-3.25;85.67;101703.75;6243113;23;8796;-82
2021/12/28 01:23:14;;;;;;;;;98.25;77.50;;;;;-3.16;85.74;101681.63;6242857;23;8784;-82
2021/12/28 01:26:09;;;;;;;;;94.25;73.00;;;;;-3.01;85.22;101673.22;6245101;23;8895;-80
2021/12/28 01:29:06;;;;;;;;;86.50;68.25;;;;;-3.08;85.35;101667.03;6242693;23;8792;-81
2021/12/28 01:32:02;;;;;;;;;90.75;69.75;;;;;-3.20;86.07;101669.59;6243022;23;8885;-81
2021/12/28 01:34:57;;;;;;;;;87.50;69.25;;;;;-2.88;85.69;101662.31;6262922;22;8780;-81
2021/12/28 01:37:53;;;;;;;;;91.25;71.50;;;;;-3.05;85.67;101679.31;6247178;22;8804;-81
2021/12/28 01:40:48;;;;;;;;;82.75;68.50;;;;;-3.09;86.28;101676.19;6245016;23;8796;-80
2021/12/28 01:43:44;;;;;;;;;67.00;58.00;;;;;-2.86;85.96;101667.53;6263970;22;8827;-80
2021/12/28 01:46:40;;;;;;;;;91.25;67.75;;;;;-2.75;86.17;101680.38;6264147;22;8868;-80
2021/12/28 01:49:36;;;;;;;;;77.75;63.50;;;;;-2.79;85.85;101673.72;6247720;22;8834;-80
2021/12/28 01:52:32;;;;;;;;;76.75;59.75;;;;;-2.77;85.66;101678.91;6264059;22;8792;-80
2021/12/28 01:55:27;;;;;;;;;77.00;62.00;;;;;-2.69;85.77;101682.19;6248125;22;8858;-80
2021/12/28 01:58:23;;;;;;;;;70.75;56.00;;;;;-2.79;85.96;101679.13;6246977;23;8838;-80
2021/12/28 02:01:21;;;;;;;;;71.00;54.25;;;;;-2.66;85.44;101678.22;6247260;23;8894;-82
2021/12/28 02:04:20;;;;;;;;;61.50;51.00;;;;;-2.72;85.95;101671.81;6246112;23;8776;-81
2021/12/28 02:07:16;;;;;;;;;62.25;54.50;;;;;-2.77;85.91;101671.63;6245118;23;8793;-81
2021/12/28 02:10:12;;;;;;;;;53.75;46.50;;;;;-2.82;86.47;101663.34;6259439;22;8765;-80
2021/12/28 02:13:07;;;;;;;;;70.25;55.50;;;;;-2.78;86.59;101669.13;6263890;22;8828;-82
2021/12/28 02:16:04;;;;;;;;;56.75;51.50;;;;;-2.76;86.83;101670.59;6246128;23;8781;-80
2021/12/28 02:19:02;;;;;;;;;61.50;53.00;;;;;-2.58;87.07;101676.06;6225855;23;8789;-80
2021/12/28 02:21:57;;;;;;;;;58.00;50.25;;;;;-2.49;86.48;101673.94;6227036;23;8790;-80
2021/12/28 02:24:53;;;;;;;;;58.00;50.25;;;;;-2.61;86.66;101657.56;6245862;23;8789;-80
2021/12/28 02:27:49;;;;;;;;;57.25;51.00;;;;;-2.53;86.47;101659.16;6245701;23;8786;-81
2021/12/28 02:30:47;;;;;;;;;66.75;54.50;;;;;-2.60;86.25;101647.56;6225738;23;8773;-81
2021/12/28 02:33:43;;;;;;;;;66.00;55.00;;;;;-2.62;86.72;101652.34;6244838;23;8786;-81
2021/12/28 02:36:40;;;;;;;;;50.75;42.75;;;;;-2.66;86.64;101648.44;6244658;23;8785;-81
2021/12/28 02:39:35;;;;;;;;;62.75;53.00;;;;;-2.59;86.41;101635.69;6225672;23;8904;-81
2021/12/28 02:42:31;;;;;;;;;66.00;49.25;;;;;-2.58;86.00;101632.75;6225574;23;8886;-81
2021/12/28 02:45:45;;;;;;;;;54.50;47.25;;;;;-2.62;86.38;101631.50;6244627;23;8785;-81
2021/12/28 02:48:42;;;;;;;;;79.50;61.50;;;;;-2.69;86.79;101638.84;6224961;23;8851;-80
2021/12/28 02:51:38;;;;;;;;;81.50;63.75;;;;;-2.56;86.67;101637.94;6245190;23;8781;-81
2021/12/28 02:54:33;;;;;;;;;78.25;58.50;;;;;-2.48;86.47;101645.78;6247996;23;8817;-81
2021/12/28 02:57:29;;;;;;;;;60.50;51.75;;;;;-2.48;86.06;101639.53;6258399;23;8782;-80
2021/12/28 03:00:38;;;;;;;;;65.00;49.00;;;;;-2.68;86.85;101627.00;6245354;23;8789;-80
2021/12/28 03:03:35;;;;;;;;;67.00;54.75;;;;;-2.53;86.90;101626.66;6224292;23;8801;-81
2021/12/28 03:06:33;;;;;;;;;53.25;46.50;;;;;-2.59;87.10;101633.78;6226457;23;8797;-81
2021/12/28 03:09:29;;;;;;;;;41.00;39.25;;;;;-2.64;87.08;101633.63;6245374;23;8765;-80
2021/12/28 03:12:25;;;;;;;;;53.75;48.75;;;;;-2.56;87.05;101621.69;6241854;23;8801;-81
2021/12/28 03:15:21;;;;;;;;;53.25;48.50;;;;;-2.45;87.51;101615.56;6263475;22;8838;-81
2021/12/28 03:18:17;;;;;;;;;60.50;49.75;;;;;-2.64;86.85;101620.06;6246848;23;8773;-80
2021/12/28 03:21:15;;;;;;;;;50.75;45.00;;;;;-2.70;87.16;101612.81;6264511;22;8785;-81
2021/12/28 03:24:11;;;;;;;;;47.75;42.50;;;;;-2.55;87.14;101602.50;6245970;23;8859;-81
2021/12/28 03:27:06;;;;;;;;;56.75;47.00;;;;;-2.38;86.38;101615.47;6246054;23;8796;-80
2021/12/28 03:30:07;;;;;;;;;43.75;43.25;;;;;-2.48;86.19;101602.44;6244024;23;8793;-80
2021/12/28 03:33:03;;;;;;;;;51.00;47.25;;;;;-2.44;86.29;101594.72;6244474;22;8801;-80
2021/12/28 03:35:59;;;;;;;;;53.00;48.00;;;;;-2.54;86.72;101597.91;6246205;23;8819;-79
2021/12/28 03:38:57;;;;;;;;;55.50;51.25;;;;;-2.52;86.20;101596.66;6243444;23;8800;-77
2021/12/28 03:41:53;;;;;;;;;56.25;48.50;;;;;-2.48;86.34;101588.91;6224817;23;8825;-79
2021/12/28 03:44:49;;;;;;;;;48.75;46.00;;;;;-2.52;86.94;101588.53;6262991;22;9487;-79
2021/12/28 03:47:45;;;;;;;;;55.25;48.50;;;;;-2.56;87.11;101584.59;6245594;23;9495;-81
2021/12/28 03:50:40;;;;;;;;;50.50;47.50;;;;;-2.68;87.21;101578.25;6243697;23;9476;-81
2021/12/28 03:53:37;;;;;;;;;52.50;47.50;;;;;-2.46;87.05;101569.69;6245862;23;8808;-80
2021/12/28 03:56:33;;;;;;;;;53.25;48.25;;;;;-2.34;86.41;101576.88;6245480;23;8785;-80
2021/12/28 03:59:29;;;;;;;;;51.75;41.75;;;;;-2.47;86.38;101576.19;6245698;23;8785;-80
2021/12/28 04:02:25;;;;;;;;;46.75;44.50;;;;;-2.40;86.74;101576.94;6245670;23;8813;-80
2021/12/28 04:05:21;;;;;;;;;58.75;50.50;;;;;-2.47;86.80;101584.31;6245993;23;9509;-81
2021/12/28 04:08:21;;;;;;;;;53.00;48.00;;;;;-2.50;86.67;101582.06;6263790;22;8792;-80
2021/12/28 04:14:17;;;;;;;;;47.25;42.75;;;;;-2.42;86.05;101584.47;6244852;23;8805;-78
2021/12/28 04:17:13;;;;;;;;;45.25;41.00;;;;;-2.39;86.14;101578.59;6224924;23;8785;-78
2021/12/28 04:20:12;;;;;;;;;57.50;47.25;;;;;-2.55;86.56;101580.00;6244423;23;8808;-79
2021/12/28 04:23:08;;;;;;;;;59.00;48.00;;;;;-2.27;86.59;101582.25;6243829;23;8831;-79
2021/12/28 04:26:05;;;;;;;;;36.75;36.00;;;;;-2.39;86.65;101575.88;6244873;23;8793;-78
2021/12/28 04:29:00;;;;;;;;;34.00;30.25;;;;;-2.61;86.33;101565.50;6244238;23;8808;-77
2021/12/28 04:31:56;;;;;;;;;27.50;26.75;;;;;-2.50;86.93;101555.78;6244458;23;8816;-77
2021/12/28 04:34:54;;;;;;;;;44.00;36.50;;;;;-2.44;86.40;101556.78;6244338;23;8789;-78
2021/12/28 04:37:49;;;;;;;;;22.50;21.25;;;;;-2.51;86.65;101554.13;6245354;23;8789;-79
2021/12/28 04:40:45;;;;;;;;;49.75;44.00;;;;;-2.39;86.39;101548.78;6244399;23;8833;-79
2021/12/28 04:43:41;;;;;;;;;31.75;30.00;;;;;-2.61;86.40;101530.28;6244381;23;9570;-77
2021/12/28 04:46:36;;;;;;;;;35.33;35.33;;;;;-2.48;86.03;101518.47;6224127;23;8805;-78
2021/12/28 04:49:32;;;;;;;;;34.67;34.67;;;;;-2.60;86.16;101507.56;6244057;23;8781;-79
2021/12/28 04:52:34;;;;;;;;;33.00;33.00;;;;;-2.76;86.27;101508.13;6244087;23;9502;-77
2021/12/28 04:55:30;;;;;;;;;37.75;35.50;;;;;-2.50;86.29;101495.38;6244263;23;8781;-78
2021/12/28 04:58:26;;;;;;;;;41.50;39.75;;;;;-2.64;86.41;101489.25;6244316;23;9543;-76
2021/12/28 05:01:21;;;;;;;;;39.25;32.00;;;;;-2.80;86.96;101496.06;6224335;23;8790;-76
2021/12/28 05:04:17;;;;;;;;;33.50;33.00;;;;;-2.78;87.03;101496.69;6244135;23;8769;-76
2021/12/28 05:07:12;;;;;;;;;37.50;34.50;;;;;-2.89;86.71;101484.72;6244046;23;8847;-76
2021/12/28 05:10:10;;;;;;;;;37.75;36.75;;;;;-2.97;86.58;101495.00;6225584;23;8777;-77
2021/12/28 05:13:06;;;;;;;;;26.75;22.50;;;;;-3.07;87.08;101487.34;6225334;23;8805;-77
2021/12/28 05:16:07;;;;;;;;;32.00;32.00;;;;;-2.95;87.38;101485.59;6225570;23;8793;-77
2021/12/28 05:19:05;;;;;;;;;37.00;37.00;;;;;-3.06;87.85;101488.22;6225637;23;8854;-78
2021/12/28 05:22:01;;;;;;;;;36.00;33.25;;;;;-3.19;87.48;101486.44;6223994;23;8828;-75
2021/12/28 05:24:56;;;;;;;;;31.50;30.25;;;;;-3.19;87.55;101487.25;6244455;23;8797;-77
2021/12/28 05:27:54;;;;;;;;;27.50;27.50;;;;;-3.19;87.91;101486.44;6224812;23;8782;-76
2021/12/28 05:30:49;;;;;;;;;25.25;23.25;;;;;-3.31;88.12;101474.66;6244166;23;8788;-76
2021/12/28 05:33:45;;;;;;;;;34.75;33.00;;;;;-3.26;88.71;101469.41;6244197;23;8886;-76
2021/12/28 05:36:41;;;;;;;;;33.00;28.50;;;;;-3.17;88.06;101460.78;6224678;23;8773;-75
2021/12/28 05:39:36;;;;;;;;;34.50;34.50;;;;;-3.13;87.98;101453.09;6245544;23;8813;-75
2021/12/28 05:42:32;;;;;;;;;29.50;27.00;;;;;-3.32;88.31;101462.19;6224831;23;9638;-76
2021/12/28 05:45:28;;;;;;;;;29.75;26.25;;;;;-3.27;88.49;101463.19;6241551;23;8836;-77
2021/12/28 05:48:23;;;;;;;;;22.25;22.25;;;;;-3.23;88.51;101453.56;6243959;23;8765;-78
2021/12/28 05:51:19;;;;;;;;;33.75;30.75;;;;;-3.14;88.63;101454.97;6243063;23;8785;-78
2021/12/28 05:54:15;;;;;;;;;35.75;32.00;;;;;-3.24;88.69;101457.31;6245141;22;8793;-77
2021/12/28 05:57:11;;;;;;;;;39.75;35.00;;;;;-3.22;88.92;101441.72;6243557;23;8793;-76
2021/12/28 06:00:09;;;;;;;;;37.75;35.25;;;;;-3.14;89.13;101457.66;6244901;23;8777;-77
2021/12/28 06:03:06;;;;;;;;;52.50;41.75;;;;;-2.98;89.08;101437.31;6244290;23;8838;-78
2021/12/28 06:06:01;;;;;;;;;50.00;40.25;;;;;-3.15;89.44;101460.56;6243665;23;8902;-78
2021/12/28 06:08:57;;;;;;;;;34.00;31.50;;;;;-3.01;90.55;101450.47;6243506;23;8785;-74
2021/12/28 06:11:53;;;;;;;;;50.75;45.25;;;;;-2.98;90.61;101450.03;6243629;23;8808;-76
2021/12/28 06:14:49;;;;;;;;;56.00;48.50;;;;;-3.04;90.51;101440.09;6243439;23;8825;-73
2021/12/28 06:17:45;;;;;;;;;71.00;56.00;;;;;-1.60;95.94;101435.84;6243664;23;8837;-74
2021/12/28 06:20:41;;;;;;;;;40.00;34.75;;;;;-0.49;100.00;101423.22;6244906;23;8878;-73
2021/12/28 06:23:37;;;;;;;;;65.00;52.75;;;;;0.03;100.00;101434.88;6245338;23;8828;-71
2021/12/28 06:26:33;;;;;;;;;56.33;45.67;;;;;-1.05;94.82;101422.81;6245380;23;8820;-71
2021/12/28 06:29:29;;;;;;;;;53.33;47.33;;;;;-1.27;93.43;101419.00;6245357;23;8789;-72
2021/12/28 06:32:24;;;;;;;;;60.75;51.25;;;;;-0.82;96.31;101404.84;6245411;23;8785;-72
2021/12/28 06:35:20;;;;;;;;;48.33;45.00;;;;;-0.40;95.90;101410.91;6245830;23;8773;-73
2021/12/28 06:38:17;;;;;;;;;61.67;52.00;;;;;0.11;98.92;101387.44;6244438;23;8977;-73
2021/12/28 06:41:13;;;;;;;;;57.33;48.67;;;;;-1.03;96.38;101366.38;6244546;23;8912;-71
2021/12/28 06:44:09;;;;;;;;;37.33;31.67;;;;;-0.89;97.59;101359.63;6245338;23;8828;-72
2021/12/28 06:47:05;;;;;;;;;46.33;44.00;;;;;-1.79;96.93;101373.50;6245428;23;8781;-72
2021/12/28 06:50:03;;;;;;;;;44.67;38.67;;;;;-1.22;100.00;101381.97;6245022;23;8895;-71
2021/12/28 06:52:58;;;;;;;;;48.67;43.67;;;;;-2.18;98.78;101350.53;6225378;23;8808;-73
2021/12/28 06:55:54;;;;;;;;;57.00;45.33;;;;;-2.08;100.00;101358.91;6244967;23;8825;-72
2021/12/28 06:58:50;;;;;;;;;52.75;45.00;;;;;-3.07;96.43;101341.22;6245015;23;8811;-73
2021/12/28 07:01:46;;;;;;;;;48.25;41.00;;;;;-3.45;97.50;101319.75;6245172;23;8910;-73
2021/12/28 07:04:42;;;;;;;;;66.50;49.75;;;;;-3.60;98.01;101346.31;6224849;23;8770;-74
2021/12/28 07:07:38;;;;;;;;;37.25;34.00;;;;;-3.62;98.93;101346.53;6245434;23;8804;-73
2021/12/28 07:10:37;;;;;;;;;42.50;35.75;;;;;-3.63;98.06;101350.28;6225116;23;8777;-74
2021/12/28 07:13:33;;;;;;;;;37.25;32.75;;;;;-3.54;97.72;101361.66;6245344;23;8873;-73
2021/12/28 07:16:30;;;;;;;;;30.25;30.25;;;;;-3.28;96.45;101372.25;6245034;23;8789;-73
2021/12/28 07:19:26;;;;;;;;;22.67;19.67;;;;;-3.30;95.24;101344.56;6224908;23;8829;-74
2021/12/28 07:22:21;;;;;;;;;18.33;16.00;;;;;-3.33;94.95;101363.13;6244548;23;8773;-74
2021/12/28 07:25:18;;;;;;;;;22.67;22.00;;;;;-3.49;95.46;101338.31;6244812;23;8793;-73
2021/12/28 07:28:14;;;;;;;;;9.33;9.33;;;;;-3.57;94.99;101344.00;6244869;23;8777;-71
2021/12/28 07:31:09;;;;;;;;;16.33;13.67;;;;;-3.69;95.96;101326.84;6244741;23;9606;-72
2021/12/28 07:34:05;;;;;;;;;31.67;25.67;;;;;-3.67;95.86;101311.25;6244511;23;8793;-73
2021/12/28 07:37:02;;;;;;;;;18.75;18.75;;;;;-3.68;95.87;101323.94;6227312;23;8778;-78
2021/12/28 07:39:58;;;;;;;;;25.50;24.50;;;;;-3.35;94.24;101341.72;6245477;23;8769;-80
2021/12/28 07:42:54;;;;;;;;;11.33;11.33;;;;;-3.64;94.00;101354.06;6245873;23;8807;-79
2021/12/28 07:45:51;;;;;;;;;37.00;31.33;;;;;-3.46;94.50;101374.91;6247109;23;8781;-81
2021/12/28 07:48:49;;;;;;;;;21.67;16.00;;;;;-3.48;93.58;101348.06;6245813;23;8781;-81
2021/12/28 07:51:46;;;;;;;;;18.33;18.33;;;;;-3.51;93.00;101359.34;6206468;23;9565;-80
2021/12/28 07:54:42;;;;;;;;;17.33;17.33;;;;;-3.53;92.31;101339.78;6244792;23;8801;-81
2021/12/28 07:57:38;;;;;;;;;10.00;10.00;;;;;-3.65;92.90;101290.22;6224205;23;8785;-79
2021/12/28 08:00:34;;;;;;;;;17.33;17.33;;;;;-3.68;92.95;101271.72;6244521;23;8813;-77
2021/12/28 08:03:30;;;;;;;;;8.67;5.33;;;;;-3.76;93.47;101274.69;6244518;23;8879;-78
2021/12/28 08:06:26;;;;;;;;;14.67;14.67;;;;;-3.76;94.00;101290.91;6244445;23;8855;-78
2021/12/28 08:09:21;;;;;;;;;9.33;9.33;;;;;-3.48;93.90;101285.88;6245198;23;8786;-78
2021/12/28 08:12:17;;;;;;;;;19.00;18.00;;;;;-3.41;92.32;101283.94;6236707;23;8827;-76
2021/12/28 08:15:13;;;;;;;;;15.67;13.33;;;;;-3.31;91.82;101278.00;6244777;23;8781;-80
2021/12/28 08:18:09;;;;;;;;;10.00;10.00;;;;;-3.25;91.32;101266.28;6247141;23;8800;-77
2021/12/28 08:21:05;;;;;;;;;10.67;10.67;;;;;-3.34;90.92;101266.81;6245420;23;8800;-77
2021/12/28 08:24:00;;;;;;;;;30.67;27.33;;;;;-3.23;91.60;101250.66;6247832;22;8877;-78
2021/12/28 08:26:56;;;;;;;;;10.00;10.00;;;;;-3.23;91.40;101253.34;6246656;23;9502;-77
2021/12/28 08:29:52;;;;;;;;;15.67;15.67;;;;;-3.21;91.62;101251.28;6246308;23;8879;-78
2021/12/28 08:32:51;;;;;;;;;11.33;11.33;;;;;-3.16;91.56;101235.16;6260849;22;8819;-78
2021/12/28 08:35:46;;;;;;;;;10.67;10.67;;;;;-3.26;91.64;101197.00;6245008;23;8819;-78
2021/12/28 08:38:43;;;;;;;;;14.33;13.67;;;;;-3.29;91.30;101188.53;6245180;23;8807;-78
2021/12/28 08:41:39;;;;;;;;;6.00;5.33;;;;;-3.18;92.14;101198.56;6245304;22;8966;-76
2021/12/28 08:44:35;;;;;;;;;9.33;9.33;;;;;-3.18;92.45;101196.69;6243012;23;9498;-76
2021/12/28 08:47:31;;;;;;;;;13.67;13.67;;;;;-3.11;91.77;101180.38;6244916;22;8796;-76
2021/12/28 08:50:27;;;;;;;;;11.67;10.00;;;;;-3.02;91.17;101191.72;6245326;23;8858;-76
2021/12/28 08:53:23;;;;;;;;;1.00;1.00;;;;;-3.16;91.18;101194.56;6246184;23;8894;-75
2021/12/28 08:56:19;;;;;;;;;18.33;18.33;;;;;-3.10;91.32;101193.66;6245371;23;9454;-76
2021/12/28 08:59:15;;;;;;;;;15.00;15.00;;;;;-2.99;92.21;101161.47;6244993;22;8824;-75
2021/12/28 09:02:11;;;;;;;;;16.00;16.00;;;;;-3.04;91.75;101167.59;6245799;22;8791;-76
2021/12/28 09:05:08;;;;;;;;;10.00;10.00;;;;;-3.02;92.03;101173.59;6242296;23;8813;-78
2021/12/28 09:08:08;;;;;;;;;4.00;4.00;;;;;-3.05;91.93;101157.81;6245265;23;8796;-77
2021/12/28 09:11:03;;;;;;;;;12.00;10.67;;;;;-2.95;92.49;101151.84;6244956;23;8808;-78
2021/12/28 09:13:59;;;;;;;;;18.75;17.00;;;;;-2.92;92.54;101157.59;6245121;23;9471;-78
2021/12/28 09:16:55;;;;;;;;;22.67;22.67;;;;;-2.82;92.31;101141.66;6244476;23;8832;-77
2021/12/28 09:19:50;;;;;;;;;28.67;23.33;;;;;-2.83;92.53;101126.47;6223920;23;8785;-77
2021/12/28 09:22:47;;;;;;;;;13.00;13.00;;;;;-2.76;92.57;101131.78;6223912;23;8793;-78
2021/12/28 09:25:43;;;;;;;;;16.67;16.67;;;;;-2.71;92.73;101114.84;6243734;23;8793;-77
2021/12/28 09:28:39;;;;;;;;;7.00;7.00;;;;;-2.78;92.17;101120.34;6243768;23;8800;-76
2021/12/28 09:31:34;;;;;;;;;18.67;13.00;;;;;-2.78;91.83;101120.34;6243625;23;8847;-76
2021/12/28 09:34:31;;;;;;;;;9.33;9.33;;;;;-2.72;92.02;101119.44;6243990;23;8805;-76
2021/12/28 09:37:27;;;;;;;;;8.33;8.33;;;;;-2.75;91.67;101129.91;6243754;23;8774;-75
2021/12/28 09:40:22;;;;;;;;;7.00;6.67;;;;;-2.74;91.75;101116.13;6243979;23;8785;-75
2021/12/28 09:43:20;;;;;;;;;10.00;8.33;;;;;-2.72;91.33;101100.47;6243383;23;8785;-76
2021/12/28 09:46:16;;;;;;;;;14.67;14.33;;;;;-2.68;91.41;101120.63;6243147;23;8885;-74
2021/12/28 09:49:12;;;;;;;;;11.67;10.67;;;;;-2.46;90.96;101117.34;6243378;23;8777;-76
2021/12/28 09:52:08;;;;;;;;;13.00;11.33;;;;;-2.44;90.29;101107.94;6224021;23;8797;-76
2021/12/28 09:55:04;;;;;;;;;16.67;16.67;;;;;-2.54;90.50;101108.50;6243887;23;8831;-75
2021/12/28 09:58:00;;;;;;;;;9.33;9.33;;;;;-2.45;90.83;101091.91;6245530;23;9560;-76
2021/12/28 10:00:55;;;;;;;;;12.00;12.00;;;;;-2.40;90.78;101100.16;6245648;23;9488;-77
2021/12/28 10:03:52;;;;;;;;;13.67;13.67;;;;;-2.38;91.16;101109.69;6246017;23;8789;-78
2021/12/28 10:06:47;;;;;;;;;17.33;17.33;;;;;-2.26;90.69;101132.19;6246166;23;8781;-80
2021/12/28 10:09:43;;;;;;;;;18.67;18.67;;;;;-2.11;90.87;101177.81;6247203;23;8850;-80
2021/12/28 10:12:42;;;;;;;;;15.00;14.67;;;;;-2.18;90.57;101173.56;6241644;23;8799;-77
2021/12/28 10:15:40;;;;;;;;;30.67;29.00;;;;;-2.16;90.76;101130.78;6246354;23;8804;-79
2021/12/28 10:18:35;;;;;;;;;20.67;18.67;;;;;-2.09;91.49;101126.88;6265155;22;8809;-80
2021/12/28 10:21:31;;;;;;;;;59.00;50.00;;;;;-2.05;92.12;101121.84;6247016;23;8784;-79
2021/12/28 10:24:31;;;;;;;;;27.33;26.33;;;;;-2.22;91.57;101081.09;6244020;23;8765;-78
2021/12/28 10:27:30;;;;;;;;;18.00;18.00;;;;;-2.24;91.57;101086.72;6243301;23;8781;-77
2021/12/28 10:30:29;;;;;;;;;30.33;29.33;;;;;-2.16;92.02;101073.88;6243918;23;8827;-80
2021/12/28 10:33:29;;;;;;;;;18.67;18.00;;;;;-2.10;92.65;101056.66;6246325;23;8797;-79
2021/12/28 10:36:33;;;;;;;;;31.33;27.00;;;;;-2.20;92.87;101056.44;6243980;23;9585;-75
2021/12/28 10:39:43;;;;;;;;;19.33;19.33;;;;;-2.14;92.70;101059.03;6244128;23;9474;-78
2021/12/28 10:43:00;;;;;;;;;9.67;9.67;;;;;-2.14;92.75;101059.03;6246420;22;8789;-80
2021/12/28 10:46:01;;;;;;;;;21.00;18.00;;;;;-2.06;93.06;101058.69;6244517;23;8828;-80
2021/12/28 10:49:01;;;;;;;;;18.67;18.67;;;;;-2.10;93.24;101046.66;6261866;22;8793;-79
2021/12/28 10:52:30;;;;;;;;;35.67;26.33;;;;;-1.88;93.58;101037.88;6225536;23;9675;-81
2021/12/28 10:55:27;;;;;;;;;21.33;19.00;;;;;-1.73;93.87;101044.44;6245990;23;9576;-79
2021/12/28 10:58:29;;;;;;;;;17.33;16.67;;;;;-1.79;92.53;101086.06;6246484;23;8800;-78
2021/12/28 11:01:32;;;;;;;;;23.33;22.33;;;;;-1.60;92.36;101072.38;6246025;23;8791;-79
2021/12/28 11:04:37;;;;;;;;;15.00;15.00;;;;;-1.78;92.84;101062.50;6263583;22;8788;-78
2021/12/28 11:07:32;;;;;;;;;15.67;14.33;;;;;-1.64;93.32;101049.47;6245086;23;8784;-79
2021/12/28 11:10:29;;;;;;;;;12.00;12.00;;;;;-1.55;94.36;101027.16;6246230;22;8866;-80
2021/12/28 11:13:28;;;;;;;;;7.67;7.67;;;;;-1.55;94.78;101032.56;6226573;23;8786;-82
2021/12/28 11:16:28;;;;;;;;;24.00;22.00;;;;;-1.41;95.00;101019.53;6224850;23;8803;-83
2021/12/28 11:19:28;;;;;;;;;15.33;15.00;;;;;-1.43;95.30;101005.41;6225132;23;8789;-83
2021/12/28 11:22:24;;;;;;;;;12.00;12.00;;;;;-1.22;95.10;101028.31;6224833;23;8797;-84
2021/12/28 11:25:19;;;;;;;;;11.67;11.33;;;;;-1.06;94.85;100994.94;6228083;23;8891;-82
2021/12/28 11:28:19;;;;;;;;;13.00;13.00;;;;;-1.30;94.42;100986.13;6226151;23;8804;-79
2021/12/28 11:31:17;;;;;;;;;9.00;9.00;;;;;-1.04;95.62;100979.22;6225650;23;8778;-82
2021/12/28 11:34:21;;;;;;;;;1.00;1.00;;;;;-1.03;94.63;100978.13;6228406;23;8803;-79
2021/12/28 11:37:20;;;;;;;;;12.00;12.00;;;;;-1.13;95.53;100953.56;6248328;23;8808;-80
2021/12/28 11:40:16;;;;;;;;;6.00;6.00;;;;;-0.99;95.20;100976.59;6249732;23;8844;-79
2021/12/28 11:43:12;;;;;;;;;8.33;8.33;;;;;-1.00;94.89;100941.53;6249833;23;9302;-80
2021/12/28 11:46:09;;;;;;;;;9.00;9.00;;;;;-1.04;95.05;100914.06;6245073;23;8785;-76
2021/12/28 11:49:08;;;;;;;;;10.00;10.00;;;;;-1.04;94.46;100886.09;6244417;23;8801;-83
2021/12/28 11:52:06;;;;;;;;;9.00;9.00;;;;;-1.07;95.16;100881.16;6245043;23;8811;-79
2021/12/28 11:55:03;;;;;;;;;4.00;4.00;;;;;-1.09;94.36;100891.44;6245596;23;8777;-77
2021/12/28 11:57:58;;;;;;;;;7.67;7.67;;;;;-1.09;94.65;100924.84;6245279;23;8863;-78
2021/12/28 12:00:54;;;;;;;;;9.00;9.00;;;;;-1.07;94.89;100897.44;6246975;23;8777;-78
2021/12/28 12:03:49;;;;;;;;;15.00;15.00;;;;;-0.88;94.74;100901.53;6246315;23;8871;-77
2021/12/28 12:07:01;;;;;;;;;11.33;11.33;;;;;-0.61;94.13;100891.59;6244873;23;8766;-77
2021/12/28 12:09:59;;;;;;;;;8.33;8.33;;;;;-0.66;93.69;100901.56;6245273;23;8817;-75
2021/12/28 12:12:58;;;;;;;;;10.67;10.67;;;;;-0.77;94.06;100894.34;6214011;23;8792;-78
2021/12/28 12:15:55;;;;;;;;;13.00;13.00;;;;;-0.90;93.91;100898.25;6214088;23;8870;-76
2021/12/28 12:18:52;;;;;;;;;19.67;18.00;;;;;-0.50;94.96;100887.09;6213860;23;8826;-73
2021/12/28 12:21:48;;;;;;;;;18.00;18.00;;;;;1.20;100.00;100915.63;6213900;23;8801;-73
2021/12/28 12:24:52;;;;;;;;;18.00;18.00;;;;;1.66;100.00;100911.25;6213755;23;8792;-74
2021/12/28 12:27:52;;;;;;;;;21.33;19.67;;;;;2.00;100.00;100914.38;6213955;23;8796;-72
2021/12/28 12:30:54;;;;;;;;;17.00;16.25;;;;;2.01;100.00;100907.84;6213778;23;11560;-74
2021/12/28 12:33:49;;;;;;;;;19.67;19.33;;;;;1.82;100.00;100891.13;6213877;23;11634;-75
2021/12/28 12:36:48;;;;;;;;;11.50;11.50;;;;;0.81;97.99;100888.69;6213878;23;11660;-75
2021/12/28 12:39:54;;;;;;;;;12.75;12.75;;;;;1.10;99.44;100889.97;6213289;23;11653;-77
2021/12/28 12:43:12;;;;;;;;;15.67;11.33;;;;;1.07;99.44;100870.59;6213427;23;11540;-78
2021/12/28 12:46:31;;;;;;;;;18.50;18.50;;;;;0.88;98.38;100872.13;6213692;23;11546;-76
2021/12/28 12:49:31;;;;;;;;;15.25;15.25;;;;;2.20;100.00;100865.31;6213642;23;11582;-73
2021/12/28 12:52:27;;;;;;;;;13.00;13.00;;;;;1.85;99.99;100854.34;6213170;23;11618;-73
2021/12/28 12:55:34;;;;;;;;;24.00;24.00;;;;;0.70;92.74;100841.53;6193800;23;11567;-72
2021/12/28 12:58:38;;;;;;;;;23.00;20.00;;;;;0.50;93.65;100808.69;6213479;23;11541;-73
2021/12/28 13:01:40;;;;;;;;;13.00;13.00;;;;;0.65;96.18;100819.69;6193905;23;11557;-74
2021/12/28 13:04:35;;;;;;;;;13.00;13.00;;;;;0.38;94.68;100816.22;6213668;23;11556;-72
2021/12/28 13:07:34;;;;;;;;;9.00;7.67;;;;;0.30;95.38;100803.91;6213623;23;11534;-72
2021/12/28 13:10:30;;;;;;;;;6.67;6.67;;;;;0.46;96.26;100802.13;6213526;22;11560;-71
2021/12/28 13:13:26;;;;;;;;;9.00;9.00;;;;;0.14;93.98;100796.72;6223681;23;11565;-72
2021/12/28 13:16:21;;;;;;;;;12.00;12.00;;;;;0.06;94.57;100789.03;6244139;23;9522;-73
2021/12/28 13:19:17;;;;;;;;;12.33;12.00;;;;;-0.25;92.55;100786.00;6243588;23;8843;-73
2021/12/28 13:22:15;;;;;;;;;10.00;10.00;;;;;-0.73;91.62;100779.53;6223889;23;8804;-72
2021/12/28 13:25:18;;;;;;;;;13.00;13.00;;;;;-0.57;91.70;100781.34;6224338;23;8903;-73
2021/12/28 13:28:20;;;;;;;;;10.00;10.00;;;;;-0.84;92.74;100769.63;6243618;23;8824;-72
2021/12/28 13:31:22;;;;;;;;;10.33;10.33;;;;;-1.02;93.04;100759.88;6224036;23;8819;-72
2021/12/28 13:34:17;;;;;;;;;11.33;11.33;;;;;-1.08;93.93;100765.50;6243896;23;8824;-70
2021/12/28 13:37:13;;;;;;;;;7.00;7.00;;;;;-1.08;93.50;100755.47;6223829;23;8793;-70
2021/12/28 13:40:10;;;;;;;;;9.00;9.00;;;;;-1.09;93.85;100751.09;6242941;23;8785;-72